sensor_id;sensor_type;location;lat;lon;timestamp;P1;durP1;ratioP1;P2;durP2;ratioP2
2638;SDS011;1329;51.384;7.122;2022-11-20T00:01:33;25.33;;;21.30;;
2638;SDS011;1329;51.384;7.122;2022-11-20T00:04:01;25.47;;;22.07;;
2638;SDS011;1329;51.384;7.122;2022-11-20T00:06:28;26.90;;;22.27;;
2638;SDS011;1329;51.384;7.122;2022-11-20T00:08:57;25.80;;;21.33;;
2638;SDS011;1329;51.384;7.122;2022-11-20T00:11:27;26.40;;;22.13;;
2638;SDS011;1329;51.384;7.122;2022-11-20T00:13:56;25.13;;;21.03;;
2638;SDS011;1329;51.384;7.122;2022-11-20T00:16:27;22.07;;;18.37;;
2638;SDS011;1329;51.384;7.122;2022-11-20T00:18:56;19.57;;;16.87;;
2638;SDS011;1329;51.384;7.122;2022-11-20T00:21:23;21.50;;;18.43;;
2638;SDS011;1329;51.384;7.122;2022-11-20T00:23:53;24.57;;;20.93;;
2638;SDS011;1329;51.384;7.122;2022-11-20T00:26:24;22.23;;;19.27;;
2638;SDS011;1329;51.384;7.122;2022-11-20T00:28:52;22.97;;;18.80;;
2638;SDS011;1329;51.384;7.122;2022-11-20T00:31:21;20.70;;;18.13;;
2638;SDS011;1329;51.384;7.122;2022-11-20T00:33:48;22.50;;;19.37;;
2638;SDS011;1329;51.384;7.122;2022-11-20T00:36:16;22.90;;;19.17;;
2638;SDS011;1329;51.384;7.122;2022-11-20T00:38:45;22.33;;;18.70;;
2638;SDS011;1329;51.384;7.122;2022-11-20T00:41:15;22.03;;;19.10;;
2638;SDS011;1329;51.384;7.122;2022-11-20T00:43:42;21.93;;;19.17;;
2638;SDS011;1329;51.384;7.122;2022-11-20T00:46:11;23.57;;;18.77;;
2638;SDS011;1329;51.384;7.122;2022-11-20T00:48:41;23.53;;;18.83;;
2638;SDS011;1329;51.384;7.122;2022-11-20T00:51:08;22.47;;;18.77;;
2638;SDS011;1329;51.384;7.122;2022-11-20T00:53:37;22.00;;;18.13;;
2638;SDS011;1329;51.384;7.122;2022-11-20T00:56:05;20.93;;;18.70;;
2638;SDS011;1329;51.384;7.122;2022-11-20T00:58:38;22.87;;;18.53;;
2638;SDS011;1329;51.384;7.122;2022-11-20T01:01:08;21.37;;;17.83;;
2638;SDS011;1329;51.384;7.122;2022-11-20T01:03:38;21.20;;;17.80;;
2638;SDS011;1329;51.384;7.122;2022-11-20T01:06:11;20.40;;;18.13;;
2638;SDS011;1329;51.384;7.122;2022-11-20T01:08:40;20.33;;;17.50;;
2638;SDS011;1329;51.384;7.122;2022-11-20T01:11:09;18.90;;;16.90;;
2638;SDS011;1329;51.384;7.122;2022-11-20T01:13:39;20.23;;;17.17;;
2638;SDS011;1329;51.384;7.122;2022-11-20T01:16:10;18.93;;;16.87;;
2638;SDS011;1329;51.384;7.122;2022-11-20T01:18:39;21.90;;;17.93;;
2638;SDS011;1329;51.384;7.122;2022-11-20T01:21:10;20.17;;;17.30;;
2638;SDS011;1329;51.384;7.122;2022-11-20T01:23:40;19.60;;;16.97;;
2638;SDS011;1329;51.384;7.122;2022-11-20T01:26:10;23.53;;;18.67;;
2638;SDS011;1329;51.384;7.122;2022-11-20T01:28:41;20.83;;;17.00;;
2638;SDS011;1329;51.384;7.122;2022-11-20T01:31:12;19.50;;;17.33;;
2638;SDS011;1329;51.384;7.122;2022-11-20T01:33:41;19.30;;;16.83;;
2638;SDS011;1329;51.384;7.122;2022-11-20T01:36:09;20.07;;;17.33;;
2638;SDS011;1329;51.384;7.122;2022-11-20T01:38:37;18.43;;;16.33;;
2638;SDS011;1329;51.384;7.122;2022-11-20T01:41:04;19.60;;;16.70;;
2638;SDS011;1329;51.384;7.122;2022-11-20T01:43:33;19.77;;;16.13;;
2638;SDS011;1329;51.384;7.122;2022-11-20T01:46:05;20.00;;;17.40;;
2638;SDS011;1329;51.384;7.122;2022-11-20T01:48:42;19.90;;;17.40;;
2638;SDS011;1329;51.384;7.122;2022-11-20T01:51:18;20.00;;;17.53;;
2638;SDS011;1329;51.384;7.122;2022-11-20T01:53:55;20.07;;;17.67;;
2638;SDS011;1329;51.384;7.122;2022-11-20T01:56:26;18.90;;;16.90;;
2638;SDS011;1329;51.384;7.122;2022-11-20T01:58:56;19.50;;;15.90;;
2638;SDS011;1329;51.384;7.122;2022-11-20T02:01:28;20.93;;;17.40;;
2638;SDS011;1329;51.384;7.122;2022-11-20T02:03:55;18.47;;;16.30;;
2638;SDS011;1329;51.384;7.122;2022-11-20T02:06:23;17.67;;;15.70;;
2638;SDS011;1329;51.384;7.122;2022-11-20T02:08:52;18.43;;;16.10;;
2638;SDS011;1329;51.384;7.122;2022-11-20T02:11:20;18.63;;;16.00;;
2638;SDS011;1329;51.384;7.122;2022-11-20T02:13:47;19.07;;;16.07;;
2638;SDS011;1329;51.384;7.122;2022-11-20T02:16:16;18.73;;;15.93;;
2638;SDS011;1329;51.384;7.122;2022-11-20T02:18:49;18.00;;;15.70;;
2638;SDS011;1329;51.384;7.122;2022-11-20T02:21:19;16.67;;;14.90;;
2638;SDS011;1329;51.384;7.122;2022-11-20T02:24:03;17.47;;;15.50;;
2638;SDS011;1329;51.384;7.122;2022-11-20T02:26:33;16.67;;;14.67;;
2638;SDS011;1329;51.384;7.122;2022-11-20T02:29:09;17.80;;;15.43;;
2638;SDS011;1329;51.384;7.122;2022-11-20T02:31:37;16.13;;;14.43;;
2638;SDS011;1329;51.384;7.122;2022-11-20T02:34:08;17.97;;;15.73;;
2638;SDS011;1329;51.384;7.122;2022-11-20T02:36:36;17.33;;;14.97;;
2638;SDS011;1329;51.384;7.122;2022-11-20T02:39:07;16.90;;;15.10;;
2638;SDS011;1329;51.384;7.122;2022-11-20T02:41:36;18.00;;;14.90;;
2638;SDS011;1329;51.384;7.122;2022-11-20T02:44:04;17.43;;;14.63;;
2638;SDS011;1329;51.384;7.122;2022-11-20T02:46:32;17.90;;;15.57;;
2638;SDS011;1329;51.384;7.122;2022-11-20T02:49:00;17.90;;;15.10;;
2638;SDS011;1329;51.384;7.122;2022-11-20T02:51:29;18.90;;;15.17;;
2638;SDS011;1329;51.384;7.122;2022-11-20T02:53:56;18.80;;;14.97;;
2638;SDS011;1329;51.384;7.122;2022-11-20T02:56:25;17.60;;;15.10;;
2638;SDS011;1329;51.384;7.122;2022-11-20T02:58:52;18.43;;;15.93;;
2638;SDS011;1329;51.384;7.122;2022-11-20T03:01:19;19.47;;;14.90;;
2638;SDS011;1329;51.384;7.122;2022-11-20T03:03:46;17.63;;;15.03;;
2638;SDS011;1329;51.384;7.122;2022-11-20T03:06:15;16.97;;;14.87;;
2638;SDS011;1329;51.384;7.122;2022-11-20T03:08:42;16.93;;;15.13;;
2638;SDS011;1329;51.384;7.122;2022-11-20T03:11:10;17.33;;;14.63;;
2638;SDS011;1329;51.384;7.122;2022-11-20T03:13:38;17.87;;;15.27;;
2638;SDS011;1329;51.384;7.122;2022-11-20T03:16:09;17.00;;;14.33;;
2638;SDS011;1329;51.384;7.122;2022-11-20T03:18:38;19.23;;;14.93;;
2638;SDS011;1329;51.384;7.122;2022-11-20T03:21:06;15.77;;;14.03;;
2638;SDS011;1329;51.384;7.122;2022-11-20T03:23:33;18.57;;;15.00;;
2638;SDS011;1329;51.384;7.122;2022-11-20T03:26:07;16.17;;;14.07;;
2638;SDS011;1329;51.384;7.122;2022-11-20T03:28:41;15.57;;;13.93;;
2638;SDS011;1329;51.384;7.122;2022-11-20T03:31:13;17.73;;;15.10;;
2638;SDS011;1329;51.384;7.122;2022-11-20T03:33:42;16.63;;;13.73;;
2638;SDS011;1329;51.384;7.122;2022-11-20T03:36:10;17.23;;;14.80;;
2638;SDS011;1329;51.384;7.122;2022-11-20T03:38:39;16.30;;;13.80;;
2638;SDS011;1329;51.384;7.122;2022-11-20T03:41:07;17.60;;;14.83;;
2638;SDS011;1329;51.384;7.122;2022-11-20T03:43:37;18.77;;;14.60;;
2638;SDS011;1329;51.384;7.122;2022-11-20T03:46:05;19.10;;;15.60;;
2638;SDS011;1329;51.384;7.122;2022-11-20T03:48:34;16.00;;;14.10;;
2638;SDS011;1329;51.384;7.122;2022-11-20T03:51:09;17.63;;;14.77;;
2638;SDS011;1329;51.384;7.122;2022-11-20T03:53:39;16.73;;;14.43;;
2638;SDS011;1329;51.384;7.122;2022-11-20T03:56:07;17.40;;;14.90;;
2638;SDS011;1329;51.384;7.122;2022-11-20T03:58:35;17.63;;;14.77;;
2638;SDS011;1329;51.384;7.122;2022-11-20T04:01:07;16.97;;;14.60;;
2638;SDS011;1329;51.384;7.122;2022-11-20T04:03:37;16.87;;;14.53;;
2638;SDS011;1329;51.384;7.122;2022-11-20T04:06:07;16.90;;;14.47;;
2638;SDS011;1329;51.384;7.122;2022-11-20T04:08:36;17.00;;;14.47;;
2638;SDS011;1329;51.384;7.122;2022-11-20T04:11:10;18.93;;;15.33;;
2638;SDS011;1329;51.384;7.122;2022-11-20T04:13:38;16.43;;;14.67;;
2638;SDS011;1329;51.384;7.122;2022-11-20T04:16:08;16.57;;;14.40;;
2638;SDS011;1329;51.384;7.122;2022-11-20T04:18:35;16.97;;;14.90;;
2638;SDS011;1329;51.384;7.122;2022-11-20T04:21:03;18.80;;;14.50;;
2638;SDS011;1329;51.384;7.122;2022-11-20T04:23:31;15.80;;;14.13;;
2638;SDS011;1329;51.384;7.122;2022-11-20T04:26:00;20.20;;;14.67;;
2638;SDS011;1329;51.384;7.122;2022-11-20T04:28:28;17.77;;;14.43;;
2638;SDS011;1329;51.384;7.122;2022-11-20T04:31:01;16.47;;;14.67;;
2638;SDS011;1329;51.384;7.122;2022-11-20T04:33:31;16.93;;;14.57;;
2638;SDS011;1329;51.384;7.122;2022-11-20T04:36:02;17.30;;;14.47;;
2638;SDS011;1329;51.384;7.122;2022-11-20T04:38:31;16.27;;;14.33;;
2638;SDS011;1329;51.384;7.122;2022-11-20T04:40:59;16.03;;;14.23;;
2638;SDS011;1329;51.384;7.122;2022-11-20T04:43:29;16.53;;;14.20;;
2638;SDS011;1329;51.384;7.122;2022-11-20T04:45:58;17.90;;;14.27;;
2638;SDS011;1329;51.384;7.122;2022-11-20T04:48:27;16.63;;;14.73;;
2638;SDS011;1329;51.384;7.122;2022-11-20T04:51:11;16.60;;;14.30;;
2638;SDS011;1329;51.384;7.122;2022-11-20T04:53:38;15.43;;;13.67;;
2638;SDS011;1329;51.384;7.122;2022-11-20T04:56:07;17.33;;;14.10;;
2638;SDS011;1329;51.384;7.122;2022-11-20T04:58:36;16.03;;;14.13;;
2638;SDS011;1329;51.384;7.122;2022-11-20T05:01:05;17.23;;;14.53;;
2638;SDS011;1329;51.384;7.122;2022-11-20T05:03:34;18.03;;;14.67;;
2638;SDS011;1329;51.384;7.122;2022-11-20T05:06:02;16.33;;;13.47;;
2638;SDS011;1329;51.384;7.122;2022-11-20T05:08:32;16.20;;;13.97;;
2638;SDS011;1329;51.384;7.122;2022-11-20T05:11:00;17.30;;;14.57;;
2638;SDS011;1329;51.384;7.122;2022-11-20T05:13:28;17.07;;;14.20;;
2638;SDS011;1329;51.384;7.122;2022-11-20T05:16:00;17.40;;;14.03;;
2638;SDS011;1329;51.384;7.122;2022-11-20T05:18:28;15.90;;;13.97;;
2638;SDS011;1329;51.384;7.122;2022-11-20T05:20:55;15.70;;;14.00;;
2638;SDS011;1329;51.384;7.122;2022-11-20T05:23:22;16.67;;;14.67;;
2638;SDS011;1329;51.384;7.122;2022-11-20T05:26:05;15.83;;;13.90;;
2638;SDS011;1329;51.384;7.122;2022-11-20T05:28:35;16.83;;;13.70;;
2638;SDS011;1329;51.384;7.122;2022-11-20T05:31:17;15.13;;;13.43;;
2638;SDS011;1329;51.384;7.122;2022-11-20T05:33:46;16.73;;;13.83;;
2638;SDS011;1329;51.384;7.122;2022-11-20T05:36:13;16.40;;;13.80;;
2638;SDS011;1329;51.384;7.122;2022-11-20T05:38:42;17.03;;;14.23;;
2638;SDS011;1329;51.384;7.122;2022-11-20T05:41:12;14.63;;;12.57;;
2638;SDS011;1329;51.384;7.122;2022-11-20T05:43:41;17.30;;;14.47;;
2638;SDS011;1329;51.384;7.122;2022-11-20T05:46:11;17.43;;;14.43;;
2638;SDS011;1329;51.384;7.122;2022-11-20T05:48:43;16.40;;;14.13;;
2638;SDS011;1329;51.384;7.122;2022-11-20T05:51:11;16.63;;;14.23;;
2638;SDS011;1329;51.384;7.122;2022-11-20T05:53:41;16.53;;;13.57;;
2638;SDS011;1329;51.384;7.122;2022-11-20T05:56:10;16.20;;;14.00;;
2638;SDS011;1329;51.384;7.122;2022-11-20T05:58:40;16.37;;;13.97;;
2638;SDS011;1329;51.384;7.122;2022-11-20T06:01:08;17.70;;;13.90;;
2638;SDS011;1329;51.384;7.122;2022-11-20T06:03:38;15.63;;;13.17;;
2638;SDS011;1329;51.384;7.122;2022-11-20T06:06:08;15.90;;;13.63;;
2638;SDS011;1329;51.384;7.122;2022-11-20T06:08:36;16.20;;;13.93;;
2638;SDS011;1329;51.384;7.122;2022-11-20T06:11:03;18.17;;;14.13;;
2638;SDS011;1329;51.384;7.122;2022-11-20T06:13:32;16.90;;;15.03;;
2638;SDS011;1329;51.384;7.122;2022-11-20T06:16:00;16.87;;;14.80;;
2638;SDS011;1329;51.384;7.122;2022-11-20T06:18:27;17.33;;;14.63;;
2638;SDS011;1329;51.384;7.122;2022-11-20T06:21:02;19.33;;;16.30;;
2638;SDS011;1329;51.384;7.122;2022-11-20T06:23:31;20.27;;;17.03;;
2638;SDS011;1329;51.384;7.122;2022-11-20T06:26:04;21.73;;;17.77;;
2638;SDS011;1329;51.384;7.122;2022-11-20T06:28:34;19.07;;;16.60;;
2638;SDS011;1329;51.384;7.122;2022-11-20T06:31:01;20.87;;;16.83;;
2638;SDS011;1329;51.384;7.122;2022-11-20T06:34:08;18.63;;;16.30;;
2638;SDS011;1329;51.384;7.122;2022-11-20T06:36:36;18.47;;;15.67;;
2638;SDS011;1329;51.384;7.122;2022-11-20T06:39:06;19.33;;;16.20;;
2638;SDS011;1329;51.384;7.122;2022-11-20T06:41:33;18.80;;;16.03;;
2638;SDS011;1329;51.384;7.122;2022-11-20T06:44:01;18.77;;;16.57;;
2638;SDS011;1329;51.384;7.122;2022-11-20T06:46:30;18.73;;;15.37;;
2638;SDS011;1329;51.384;7.122;2022-11-20T06:48:58;19.43;;;16.40;;
2638;SDS011;1329;51.384;7.122;2022-11-20T06:51:25;18.13;;;16.07;;
2638;SDS011;1329;51.384;7.122;2022-11-20T06:53:52;20.20;;;17.10;;
2638;SDS011;1329;51.384;7.122;2022-11-20T06:56:19;18.13;;;15.97;;
2638;SDS011;1329;51.384;7.122;2022-11-20T06:58:49;20.07;;;16.50;;
2638;SDS011;1329;51.384;7.122;2022-11-20T07:01:17;18.10;;;15.87;;
2638;SDS011;1329;51.384;7.122;2022-11-20T07:03:44;17.47;;;15.33;;
2638;SDS011;1329;51.384;7.122;2022-11-20T07:06:11;18.83;;;15.73;;
2638;SDS011;1329;51.384;7.122;2022-11-20T07:08:41;18.03;;;15.33;;
2638;SDS011;1329;51.384;7.122;2022-11-20T07:11:11;20.73;;;17.73;;
2638;SDS011;1329;51.384;7.122;2022-11-20T07:13:41;18.40;;;16.07;;
2638;SDS011;1329;51.384;7.122;2022-11-20T07:16:08;19.37;;;16.03;;
2638;SDS011;1329;51.384;7.122;2022-11-20T07:18:37;18.83;;;15.90;;
2638;SDS011;1329;51.384;7.122;2022-11-20T07:21:07;17.90;;;15.17;;
2638;SDS011;1329;51.384;7.122;2022-11-20T07:23:36;17.97;;;15.80;;
2638;SDS011;1329;51.384;7.122;2022-11-20T07:26:04;18.70;;;15.60;;
2638;SDS011;1329;51.384;7.122;2022-11-20T07:28:33;18.20;;;15.73;;
2638;SDS011;1329;51.384;7.122;2022-11-20T07:31:00;18.10;;;16.00;;
2638;SDS011;1329;51.384;7.122;2022-11-20T07:34:02;17.20;;;15.07;;
2638;SDS011;1329;51.384;7.122;2022-11-20T07:36:29;19.77;;;16.80;;
2638;SDS011;1329;51.384;7.122;2022-11-20T07:38:56;18.97;;;16.30;;
2638;SDS011;1329;51.384;7.122;2022-11-20T07:41:23;19.30;;;17.27;;
2638;SDS011;1329;51.384;7.122;2022-11-20T07:43:54;21.40;;;18.97;;
2638;SDS011;1329;51.384;7.122;2022-11-20T07:46:21;20.47;;;18.27;;
2638;SDS011;1329;51.384;7.122;2022-11-20T07:48:48;22.93;;;20.27;;
2638;SDS011;1329;51.384;7.122;2022-11-20T07:51:16;23.10;;;19.90;;
2638;SDS011;1329;51.384;7.122;2022-11-20T07:53:43;22.77;;;20.10;;
2638;SDS011;1329;51.384;7.122;2022-11-20T07:56:10;21.93;;;19.37;;
2638;SDS011;1329;51.384;7.122;2022-11-20T07:58:39;23.57;;;21.07;;
2638;SDS011;1329;51.384;7.122;2022-11-20T08:01:06;23.20;;;20.67;;
2638;SDS011;1329;51.384;7.122;2022-11-20T08:03:35;21.33;;;19.03;;
2638;SDS011;1329;51.384;7.122;2022-11-20T08:06:03;20.83;;;18.63;;
2638;SDS011;1329;51.384;7.122;2022-11-20T08:08:32;21.53;;;18.03;;
2638;SDS011;1329;51.384;7.122;2022-11-20T08:10:59;21.60;;;17.33;;
2638;SDS011;1329;51.384;7.122;2022-11-20T08:13:41;20.10;;;17.40;;
2638;SDS011;1329;51.384;7.122;2022-11-20T08:16:25;19.57;;;16.83;;
2638;SDS011;1329;51.384;7.122;2022-11-20T08:19:25;19.83;;;16.70;;
2638;SDS011;1329;51.384;7.122;2022-11-20T08:21:53;20.33;;;16.60;;
2638;SDS011;1329;51.384;7.122;2022-11-20T08:24:22;19.37;;;17.37;;
2638;SDS011;1329;51.384;7.122;2022-11-20T08:27:28;18.93;;;16.77;;
2638;SDS011;1329;51.384;7.122;2022-11-20T08:29:57;21.10;;;17.50;;
2638;SDS011;1329;51.384;7.122;2022-11-20T08:32:24;19.43;;;17.30;;
2638;SDS011;1329;51.384;7.122;2022-11-20T08:34:54;19.97;;;17.43;;
2638;SDS011;1329;51.384;7.122;2022-11-20T08:37:21;26.27;;;23.40;;
2638;SDS011;1329;51.384;7.122;2022-11-20T08:39:50;23.97;;;19.80;;
2638;SDS011;1329;51.384;7.122;2022-11-20T08:42:18;21.47;;;19.17;;
2638;SDS011;1329;51.384;7.122;2022-11-20T08:44:45;23.40;;;19.43;;
2638;SDS011;1329;51.384;7.122;2022-11-20T08:47:12;20.90;;;17.93;;
2638;SDS011;1329;51.384;7.122;2022-11-20T08:49:40;22.53;;;18.43;;
2638;SDS011;1329;51.384;7.122;2022-11-20T08:52:06;23.33;;;19.27;;
2638;SDS011;1329;51.384;7.122;2022-11-20T08:54:33;22.37;;;18.23;;
2638;SDS011;1329;51.384;7.122;2022-11-20T08:57:01;23.23;;;18.53;;
2638;SDS011;1329;51.384;7.122;2022-11-20T08:59:29;23.97;;;18.80;;
2638;SDS011;1329;51.384;7.122;2022-11-20T09:01:57;23.27;;;19.13;;
2638;SDS011;1329;51.384;7.122;2022-11-20T09:04:25;29.50;;;24.10;;
2638;SDS011;1329;51.384;7.122;2022-11-20T09:06:52;31.33;;;26.87;;
2638;SDS011;1329;51.384;7.122;2022-11-20T09:09:19;29.53;;;23.57;;
2638;SDS011;1329;51.384;7.122;2022-11-20T09:11:48;26.27;;;21.73;;
2638;SDS011;1329;51.384;7.122;2022-11-20T09:14:17;24.30;;;20.57;;
2638;SDS011;1329;51.384;7.122;2022-11-20T09:16:44;24.73;;;20.93;;
2638;SDS011;1329;51.384;7.122;2022-11-20T09:19:11;25.17;;;21.37;;
2638;SDS011;1329;51.384;7.122;2022-11-20T09:21:41;24.00;;;20.73;;
2638;SDS011;1329;51.384;7.122;2022-11-20T09:24:09;26.90;;;21.20;;
2638;SDS011;1329;51.384;7.122;2022-11-20T09:26:36;26.60;;;22.20;;
2638;SDS011;1329;51.384;7.122;2022-11-20T09:29:03;24.10;;;20.10;;
2638;SDS011;1329;51.384;7.122;2022-11-20T09:31:32;24.30;;;20.40;;
2638;SDS011;1329;51.384;7.122;2022-11-20T09:34:00;24.73;;;20.43;;
2638;SDS011;1329;51.384;7.122;2022-11-20T09:36:27;22.53;;;19.03;;
2638;SDS011;1329;51.384;7.122;2022-11-20T09:38:54;24.10;;;20.00;;
2638;SDS011;1329;51.384;7.122;2022-11-20T09:41:31;20.63;;;17.80;;
2638;SDS011;1329;51.384;7.122;2022-11-20T09:44:30;21.37;;;17.67;;
2638;SDS011;1329;51.384;7.122;2022-11-20T09:47:13;20.37;;;16.97;;
2638;SDS011;1329;51.384;7.122;2022-11-20T09:49:55;18.27;;;15.93;;
2638;SDS011;1329;51.384;7.122;2022-11-20T09:52:37;20.57;;;17.33;;
2638;SDS011;1329;51.384;7.122;2022-11-20T09:55:13;18.43;;;16.43;;
2638;SDS011;1329;51.384;7.122;2022-11-20T09:57:43;18.23;;;15.47;;
2638;SDS011;1329;51.384;7.122;2022-11-20T10:00:13;22.10;;;19.70;;
2638;SDS011;1329;51.384;7.122;2022-11-20T10:02:44;19.77;;;17.57;;
2638;SDS011;1329;51.384;7.122;2022-11-20T10:05:18;19.37;;;16.13;;
2638;SDS011;1329;51.384;7.122;2022-11-20T10:07:48;16.53;;;14.73;;
2638;SDS011;1329;51.384;7.122;2022-11-20T10:10:22;15.03;;;13.43;;
2638;SDS011;1329;51.384;7.122;2022-11-20T10:13:04;14.03;;;12.30;;
2638;SDS011;1329;51.384;7.122;2022-11-20T10:15:52;13.00;;;11.60;;
2638;SDS011;1329;51.384;7.122;2022-11-20T10:18:35;11.77;;;10.50;;
2638;SDS011;1329;51.384;7.122;2022-11-20T10:21:17;10.40;;;9.40;;
2638;SDS011;1329;51.384;7.122;2022-11-20T10:24:00;12.20;;;10.57;;
2638;SDS011;1329;51.384;7.122;2022-11-20T10:26:52;11.87;;;10.60;;
2638;SDS011;1329;51.384;7.122;2022-11-20T10:29:33;11.47;;;9.37;;
2638;SDS011;1329;51.384;7.122;2022-11-20T10:32:02;13.50;;;11.50;;
2638;SDS011;1329;51.384;7.122;2022-11-20T10:34:38;11.53;;;10.33;;
2638;SDS011;1329;51.384;7.122;2022-11-20T10:37:16;12.87;;;10.30;;
2638;SDS011;1329;51.384;7.122;2022-11-20T10:39:48;11.47;;;10.00;;
2638;SDS011;1329;51.384;7.122;2022-11-20T10:42:23;12.10;;;10.23;;
2638;SDS011;1329;51.384;7.122;2022-11-20T10:44:58;11.47;;;10.27;;
2638;SDS011;1329;51.384;7.122;2022-11-20T10:47:36;12.17;;;10.17;;
2638;SDS011;1329;51.384;7.122;2022-11-20T10:50:05;12.23;;;10.87;;
2638;SDS011;1329;51.384;7.122;2022-11-20T10:52:40;10.97;;;9.80;;
2638;SDS011;1329;51.384;7.122;2022-11-20T10:55:24;13.57;;;10.80;;
2638;SDS011;1329;51.384;7.122;2022-11-20T10:57:59;11.60;;;9.53;;
2638;SDS011;1329;51.384;7.122;2022-11-20T11:00:36;11.87;;;10.40;;
2638;SDS011;1329;51.384;7.122;2022-11-20T11:03:07;10.83;;;9.60;;
2638;SDS011;1329;51.384;7.122;2022-11-20T11:05:50;12.27;;;10.30;;
2638;SDS011;1329;51.384;7.122;2022-11-20T11:08:21;13.00;;;9.83;;
2638;SDS011;1329;51.384;7.122;2022-11-20T11:10:50;12.63;;;10.70;;
2638;SDS011;1329;51.384;7.122;2022-11-20T11:13:20;13.00;;;10.93;;
2638;SDS011;1329;51.384;7.122;2022-11-20T11:15:48;14.10;;;11.33;;
2638;SDS011;1329;51.384;7.122;2022-11-20T11:18:23;15.33;;;12.27;;
2638;SDS011;1329;51.384;7.122;2022-11-20T11:20:54;14.03;;;12.20;;
2638;SDS011;1329;51.384;7.122;2022-11-20T11:23:28;15.10;;;12.53;;
2638;SDS011;1329;51.384;7.122;2022-11-20T11:25:59;14.63;;;11.93;;
2638;SDS011;1329;51.384;7.122;2022-11-20T11:28:28;16.17;;;12.43;;
2638;SDS011;1329;51.384;7.122;2022-11-20T11:30:55;15.13;;;12.80;;
2638;SDS011;1329;51.384;7.122;2022-11-20T11:33:23;16.60;;;13.10;;
2638;SDS011;1329;51.384;7.122;2022-11-20T11:35:55;14.90;;;12.80;;
2638;SDS011;1329;51.384;7.122;2022-11-20T11:38:28;16.23;;;12.63;;
2638;SDS011;1329;51.384;7.122;2022-11-20T11:40:59;15.97;;;13.20;;
2638;SDS011;1329;51.384;7.122;2022-11-20T11:43:28;15.97;;;13.37;;
2638;SDS011;1329;51.384;7.122;2022-11-20T11:46:23;15.73;;;12.77;;
2638;SDS011;1329;51.384;7.122;2022-11-20T11:48:56;16.13;;;12.43;;
2638;SDS011;1329;51.384;7.122;2022-11-20T11:51:26;15.13;;;12.83;;
2638;SDS011;1329;51.384;7.122;2022-11-20T11:54:00;14.40;;;11.50;;
2638;SDS011;1329;51.384;7.122;2022-11-20T11:56:35;14.93;;;12.20;;
2638;SDS011;1329;51.384;7.122;2022-11-20T11:59:04;15.43;;;12.63;;
2638;SDS011;1329;51.384;7.122;2022-11-20T12:01:41;14.43;;;11.67;;
2638;SDS011;1329;51.384;7.122;2022-11-20T12:04:14;15.13;;;12.53;;
2638;SDS011;1329;51.384;7.122;2022-11-20T12:06:53;16.97;;;13.03;;
2638;SDS011;1329;51.384;7.122;2022-11-20T12:09:34;15.53;;;12.50;;
2638;SDS011;1329;51.384;7.122;2022-11-20T12:12:08;15.80;;;13.33;;
2638;SDS011;1329;51.384;7.122;2022-11-20T12:14:40;15.57;;;13.00;;
2638;SDS011;1329;51.384;7.122;2022-11-20T12:17:09;15.70;;;12.60;;
2638;SDS011;1329;51.384;7.122;2022-11-20T12:19:39;15.60;;;12.73;;
2638;SDS011;1329;51.384;7.122;2022-11-20T12:22:11;17.00;;;13.70;;
2638;SDS011;1329;51.384;7.122;2022-11-20T12:24:52;16.87;;;13.07;;
2638;SDS011;1329;51.384;7.122;2022-11-20T12:27:34;16.57;;;13.70;;
2638;SDS011;1329;51.384;7.122;2022-11-20T12:30:14;16.70;;;13.47;;
2638;SDS011;1329;51.384;7.122;2022-11-20T12:32:46;15.80;;;13.40;;
2638;SDS011;1329;51.384;7.122;2022-11-20T12:35:38;17.73;;;14.10;;
2638;SDS011;1329;51.384;7.122;2022-11-20T12:38:33;17.97;;;14.07;;
2638;SDS011;1329;51.384;7.122;2022-11-20T12:41:12;15.80;;;13.60;;
2638;SDS011;1329;51.384;7.122;2022-11-20T12:44:15;16.90;;;13.83;;
2638;SDS011;1329;51.384;7.122;2022-11-20T12:47:13;18.27;;;14.90;;
2638;SDS011;1329;51.384;7.122;2022-11-20T12:49:50;17.20;;;14.80;;
2638;SDS011;1329;51.384;7.122;2022-11-20T12:52:29;18.47;;;14.07;;
2638;SDS011;1329;51.384;7.122;2022-11-20T12:55:12;17.80;;;14.93;;
2638;SDS011;1329;51.384;7.122;2022-11-20T12:57:55;18.27;;;15.13;;
2638;SDS011;1329;51.384;7.122;2022-11-20T13:00:26;17.70;;;14.93;;
2638;SDS011;1329;51.384;7.122;2022-11-20T13:06:12;19.30;;;15.87;;
2638;SDS011;1329;51.384;7.122;2022-11-20T13:08:43;20.43;;;16.47;;
2638;SDS011;1329;51.384;7.122;2022-11-20T13:11:20;19.33;;;15.47;;
2638;SDS011;1329;51.384;7.122;2022-11-20T13:14:04;19.17;;;15.93;;
2638;SDS011;1329;51.384;7.122;2022-11-20T13:16:44;20.80;;;16.93;;
2638;SDS011;1329;51.384;7.122;2022-11-20T13:19:17;22.23;;;17.53;;
2638;SDS011;1329;51.384;7.122;2022-11-20T13:21:44;21.60;;;17.60;;
2638;SDS011;1329;51.384;7.122;2022-11-20T13:24:21;21.40;;;17.53;;
2638;SDS011;1329;51.384;7.122;2022-11-20T13:27:02;20.67;;;16.63;;
2638;SDS011;1329;51.384;7.122;2022-11-20T13:29:43;21.97;;;16.90;;
2638;SDS011;1329;51.384;7.122;2022-11-20T13:32:13;21.57;;;17.43;;
2638;SDS011;1329;51.384;7.122;2022-11-20T13:34:51;22.30;;;17.07;;
2638;SDS011;1329;51.384;7.122;2022-11-20T13:37:26;23.03;;;18.00;;
2638;SDS011;1329;51.384;7.122;2022-11-20T13:40:11;21.00;;;17.23;;
2638;SDS011;1329;51.384;7.122;2022-11-20T13:42:54;21.03;;;17.77;;
2638;SDS011;1329;51.384;7.122;2022-11-20T13:45:28;20.40;;;17.27;;
2638;SDS011;1329;51.384;7.122;2022-11-20T13:47:57;22.63;;;17.67;;
2638;SDS011;1329;51.384;7.122;2022-11-20T13:50:40;23.37;;;18.10;;
2638;SDS011;1329;51.384;7.122;2022-11-20T13:53:28;26.97;;;19.00;;
2638;SDS011;1329;51.384;7.122;2022-11-20T13:56:15;24.93;;;18.50;;
2638;SDS011;1329;51.384;7.122;2022-11-20T13:58:54;23.73;;;18.50;;
2638;SDS011;1329;51.384;7.122;2022-11-20T14:01:29;22.77;;;17.90;;
2638;SDS011;1329;51.384;7.122;2022-11-20T14:03:57;22.57;;;17.87;;
2638;SDS011;1329;51.384;7.122;2022-11-20T14:06:26;23.10;;;18.57;;
2638;SDS011;1329;51.384;7.122;2022-11-20T14:08:56;21.83;;;18.13;;
2638;SDS011;1329;51.384;7.122;2022-11-20T14:11:25;24.93;;;19.00;;
2638;SDS011;1329;51.384;7.122;2022-11-20T14:13:55;22.57;;;18.00;;
2638;SDS011;1329;51.384;7.122;2022-11-20T14:16:26;22.60;;;18.20;;
2638;SDS011;1329;51.384;7.122;2022-11-20T14:18:55;25.07;;;20.47;;
2638;SDS011;1329;51.384;7.122;2022-11-20T14:21:24;23.67;;;19.97;;
2638;SDS011;1329;51.384;7.122;2022-11-20T14:23:54;24.53;;;19.07;;
2638;SDS011;1329;51.384;7.122;2022-11-20T14:26:30;24.83;;;19.00;;
2638;SDS011;1329;51.384;7.122;2022-11-20T14:28:59;26.43;;;20.03;;
2638;SDS011;1329;51.384;7.122;2022-11-20T14:31:26;26.97;;;21.27;;
2638;SDS011;1329;51.384;7.122;2022-11-20T14:33:54;24.40;;;19.30;;
2638;SDS011;1329;51.384;7.122;2022-11-20T14:36:23;24.13;;;20.03;;
2638;SDS011;1329;51.384;7.122;2022-11-20T14:38:51;24.67;;;18.83;;
2638;SDS011;1329;51.384;7.122;2022-11-20T14:41:20;24.30;;;19.20;;
2638;SDS011;1329;51.384;7.122;2022-11-20T14:43:49;23.47;;;19.20;;
2638;SDS011;1329;51.384;7.122;2022-11-20T14:46:22;24.03;;;18.97;;
2638;SDS011;1329;51.384;7.122;2022-11-20T14:48:51;25.63;;;20.13;;
2638;SDS011;1329;51.384;7.122;2022-11-20T14:51:28;27.63;;;20.17;;
2638;SDS011;1329;51.384;7.122;2022-11-20T14:54:07;27.70;;;19.93;;
2638;SDS011;1329;51.384;7.122;2022-11-20T14:56:39;26.47;;;19.57;;
2638;SDS011;1329;51.384;7.122;2022-11-20T14:59:06;25.70;;;19.50;;
2638;SDS011;1329;51.384;7.122;2022-11-20T15:01:35;25.07;;;19.43;;
2638;SDS011;1329;51.384;7.122;2022-11-20T15:04:05;27.40;;;20.17;;
2638;SDS011;1329;51.384;7.122;2022-11-20T15:06:35;29.10;;;21.80;;
2638;SDS011;1329;51.384;7.122;2022-11-20T15:09:02;26.30;;;20.67;;
2638;SDS011;1329;51.384;7.122;2022-11-20T15:11:31;26.27;;;19.47;;
2638;SDS011;1329;51.384;7.122;2022-11-20T15:14:01;28.80;;;22.77;;
2638;SDS011;1329;51.384;7.122;2022-11-20T15:16:31;27.80;;;21.30;;
2638;SDS011;1329;51.384;7.122;2022-11-20T15:18:59;27.50;;;20.30;;